Time;durP1;ratioP1;P1;durP2;ratioP2;P2;SDS_P1;SDS_P2;PMS_P1;PMS_P2;Temp;Humidity;BMP_temperature;BMP_pressure;BME280_temperature;BME280_humidity;BME280_pressure;Samples;Min_cycle;Max_cycle;Signal;HPM_P1;HPM_P2
2021/12/03 00:00:48;;;;;;;9.70;3.70;;;;;;;0.02;100.00;100118.19;5107378;28;20041;-74
2021/12/03 00:03:14;;;;;;;7.05;3.45;;;;;;;-0.05;100.00;100117.81;5124866;28;20047;-74
2021/12/03 00:05:40;;;;;;;7.47;3.80;;;;;;;-0.06;100.00;100110.88;5107809;28;20027;-74
2021/12/03 00:08:06;;;;;;;;;;;;;;;-0.14;100.00;100109.75;5109117;28;20163;-74
2021/12/03 00:10:34;;;;;;;8.18;3.80;;;;;;;-0.17;100.00;100115.22;5107667;28;19911;-74
2021/12/03 00:12:59;;;;;;;9.40;4.43;;;;;;;-0.21;100.00;100109.38;5107715;28;20046;-74
2021/12/03 00:15:26;;;;;;;8.25;4.75;;;;;;;-0.19;100.00;100109.25;5107323;28;20032;-74
2021/12/03 00:17:53;;;;;;;9.98;4.35;;;;;;;-0.30;100.00;100104.78;5107913;28;20036;-74
2021/12/03 00:20:20;;;;;;;10.98;4.78;;;;;;;-0.38;100.00;100093.97;5124718;27;20051;-74
2021/12/03 00:22:48;;;;;;;15.20;4.88;;;;;;;-0.44;100.00;100098.69;5107666;28;20453;-75
2021/12/03 00:25:13;;;;;;;13.18;4.13;;;;;;;-0.43;100.00;100108.22;5107253;28;20035;-75
2021/12/03 00:27:39;;;;;;;10.80;4.85;;;;;;;-0.55;100.00;100090.75;5107691;28;20040;-74
2021/12/03 00:30:08;;;;;;;13.52;5.60;;;;;;;-0.46;100.00;100120.75;5108604;28;20453;-74
2021/12/03 00:32:33;;;;;;;15.73;4.97;;;;;;;-0.48;100.00;100122.63;5107561;28;20168;-74
2021/12/03 00:34:59;;;;;;;13.43;4.80;;;;;;;-0.47;100.00;100119.91;5107467;28;20107;-74
2021/12/03 00:37:24;;;;;;;7.32;4.13;;;;;;;-0.34;100.00;100133.00;5108552;28;20501;-74
2021/12/03 00:39:50;;;;;;;9.00;4.50;;;;;;;-0.35;100.00;100128.69;5107538;28;20046;-74
2021/12/03 00:42:17;;;;;;;11.27;4.32;;;;;;;-0.34;100.00;100125.13;5108736;28;20035;-74
2021/12/03 00:44:49;;;;;;;8.68;3.28;;;;;;;-0.13;100.00;100133.25;5107100;28;20468;-74
2021/12/03 00:47:15;;;;;;;7.28;3.38;;;;;;;-0.09;100.00;100139.16;5090588;28;20031;-74
2021/12/03 00:49:40;;;;;;;8.03;2.73;;;;;;;-0.10;100.00;100119.09;5108432;28;20580;-74
2021/12/03 00:52:07;;;;;;;9.35;2.50;;;;;;;-0.10;100.00;100132.19;5107419;28;20330;-74
2021/12/03 00:54:32;;;;;;;;;;;;;;;-0.09;100.00;100126.84;5089692;28;20023;-74
2021/12/03 00:56:58;;;;;;;7.80;2.60;;;;;;;-0.09;100.00;100128.66;5107439;28;19930;-74
2021/12/03 00:59:23;;;;;;;12.48;3.10;;;;;;;-0.01;100.00;100142.03;5107224;28;20043;-74
2021/12/03 01:01:49;;;;;;;6.13;2.30;;;;;;;-0.09;100.00;100139.16;5108927;28;20028;-74
2021/12/03 01:04:15;;;;;;;7.85;1.90;;;;;;;0.05;100.00;100153.88;5093773;28;20160;-74
2021/12/03 01:06:41;;;;;;;9.25;3.22;;;;;;;0.02;100.00;100135.75;5111939;28;20103;-74
2021/12/03 01:09:06;;;;;;;5.72;1.98;;;;;;;0.05;100.00;100141.63;5110923;28;20099;-74
2021/12/03 01:11:31;;;;;;;9.60;3.57;;;;;;;-0.03;100.00;100144.78;5110976;28;20442;-74
2021/12/03 01:14:00;;;;;;;3.72;1.83;;;;;;;-0.01;100.00;100142.88;5110565;28;20165;-74
2021/12/03 01:16:28;;;;;;;7.25;1.65;;;;;;;-0.03;100.00;100138.69;5110733;28;20047;-74
2021/12/03 01:18:54;;;;;;;18.60;2.67;;;;;;;-0.12;100.00;100137.53;5093620;28;20031;-74
2021/12/03 01:21:19;;;;;;;;;;;;;;;0.02;100.00;100160.19;5111167;28;20108;-74
2021/12/03 01:23:46;;;;;;;21.23;2.10;;;;;;;-0.13;100.00;100137.69;5111335;28;19908;-74
2021/12/03 01:26:13;;;;;;;9.82;2.08;;;;;;;-0.08;100.00;100139.00;5111619;28;20039;-73
2021/12/03 01:28:39;;;;;;;11.38;2.95;;;;;;;-0.04;100.00;100145.72;5110562;28;20046;-74
2021/12/03 01:31:04;;;;;;;6.07;1.90;;;;;;;0.03;100.00;100166.31;5110386;28;20491;-74
2021/12/03 01:33:31;;;;;;;3.67;1.50;;;;;;;-0.08;100.00;100149.50;5111176;28;20027;-74
2021/12/03 01:35:56;;;;;;;7.80;1.40;;;;;;;-0.16;100.00;100135.28;5111479;28;20042;-74
2021/12/03 01:38:22;;;;;;;6.65;1.85;;;;;;;-0.06;100.00;100152.88;5110404;28;20039;-74
2021/12/03 01:40:48;;;;;;;6.47;1.90;;;;;;;0.08;100.00;100170.25;5111268;28;20039;-74
2021/12/03 01:43:20;;;;;;;7.03;2.75;;;;;;;0.01;100.00;100153.28;5093032;28;20028;-74
2021/12/03 01:45:46;;;;;;;8.23;2.30;;;;;;;0.01;100.00;100155.06;5108113;28;20039;-74
2021/12/03 01:48:12;;;;;;;7.18;3.17;;;;;;;-0.05;100.00;100151.94;5111152;28;20035;-74
2021/12/03 01:50:41;;;;;;;5.90;3.25;;;;;;;-0.06;100.00;100150.25;5108939;28;20118;-74
2021/12/03 01:53:08;;;;;;;15.40;4.63;;;;;;;-0.15;100.00;100140.41;5111073;28;20108;-74
2021/12/03 01:55:34;;;;;;;8.10;3.75;;;;;;;-0.12;100.00;100150.66;5109970;28;20032;-74
2021/12/03 01:57:59;;;;;;;8.32;3.53;;;;;;;-0.10;100.00;100161.06;5110994;28;20118;-74
2021/12/03 02:00:41;;;;;;;8.52;4.25;;;;;;;-0.02;100.00;100174.50;5110914;28;20562;-74
2021/12/03 02:03:09;;;;;;;9.90;3.42;;;;;;;0.01;100.00;100176.06;5110764;28;20031;-73
2021/12/03 02:05:36;;;;;;;11.20;4.03;;;;;;;0.08;100.00;100177.31;5110618;28;20027;-74
2021/12/03 02:08:02;;;;;;;10.55;4.60;;;;;;;0.00;100.00;100162.13;5110869;28;20040;-74
2021/12/03 02:10:28;;;;;;;9.65;3.78;;;;;;;-0.02;100.00;100172.72;5110830;28;20330;-74
2021/12/03 02:12:55;;;;;;;6.97;4.10;;;;;;;0.02;100.00;100182.97;5109754;28;20035;-74
2021/12/03 02:15:21;;;;;;;9.45;3.60;;;;;;;0.02;100.00;100183.81;5110118;28;20035;-74
2021/12/03 02:17:47;;;;;;;14.25;3.55;;;;;;;0.04;100.00;100194.22;5110548;28;20092;-73
2021/12/03 02:20:13;;;;;;;10.82;3.65;;;;;;;0.02;100.00;100196.94;5109483;28;20081;-74
2021/12/03 02:22:40;;;;;;;;;;;;;;;0.03;100.00;100203.88;5092854;28;20044;-74
2021/12/03 02:25:08;;;;;;;5.53;2.38;;;;;;;0.05;100.00;100207.25;5109157;28;19915;-73
2021/12/03 02:27:34;;;;;;;9.60;3.08;;;;;;;0.10;100.00;100214.78;5109552;28;20039;-73
2021/12/03 02:30:00;;;;;;;4.65;2.63;;;;;;;0.09;100.00;100215.72;5110180;28;20180;-74
2021/12/03 02:32:26;;;;;;;18.30;5.55;;;;;;;0.13;100.00;100222.44;5110263;28;20112;-73
2021/12/03 02:34:51;;;;;;;10.15;3.25;;;;;;;0.10;100.00;100207.75;5109896;28;20357;-73
2021/12/03 02:37:17;;;;;;;12.43;4.82;;;;;;;0.04;100.00;100197.66;5109269;28;20131;-74
2021/12/03 02:39:43;;;;;;;7.97;4.03;;;;;;;0.02;100.00;100193.47;5109224;28;20035;-73
2021/12/03 02:42:09;;;;;;;12.02;3.97;;;;;;;0.03;100.00;100201.25;5109190;28;20043;-73
2021/12/03 02:44:35;;;;;;;10.85;4.70;;;;;;;-0.06;100.00;100191.41;5109626;28;20031;-73
2021/12/03 02:47:00;;;;;;;10.23;4.55;;;;;;;-0.14;100.00;100180.59;5108014;28;20096;-73
2021/12/03 02:49:26;;;;;;;7.82;4.18;;;;;;;-0.09;100.00;100196.88;5109024;28;20035;-73
2021/12/03 02:51:51;;;;;;;11.55;5.00;;;;;;;-0.18;100.00;100187.03;5109460;28;20036;-73
2021/12/03 02:54:17;;;;;;;10.13;4.50;;;;;;;-0.17;100.00;100199.19;5108396;28;20036;-73
2021/12/03 02:56:42;;;;;;;10.80;4.25;;;;;;;-0.16;100.00;100201.72;5110046;28;20069;-73
2021/12/03 02:59:08;;;;;;;8.70;5.10;;;;;;;-0.26;100.00;100195.41;5109818;28;20043;-73
2021/12/03 03:01:33;;;;;;;8.30;4.60;;;;;;;-0.31;100.00;100203.59;5108948;28;20511;-73
2021/12/03 03:03:59;;;;;;;8.33;5.17;;;;;;;-0.22;100.00;100217.88;5109331;28;20031;-74
2021/12/03 03:06:25;;;;;;;9.88;5.13;;;;;;;-0.36;100.00;100203.06;5109590;27;20288;-74
2021/12/03 03:08:51;;;;;;;13.43;3.97;;;;;;;-0.36;100.00;100217.97;5108751;28;20092;-74
2021/12/03 03:11:17;;;;;;;9.20;4.00;;;;;;;-0.33;100.00;100213.38;5108447;28;20122;-73
2021/12/03 03:13:43;;;;;;;;;;;;;;;-0.27;100.00;100226.06;5108695;28;20356;-73
2021/12/03 03:16:09;;;;;;;7.20;3.45;;;;;;;-0.25;100.00;100225.97;5109631;28;19920;-73
2021/12/03 03:18:35;;;;;;;9.48;3.00;;;;;;;-0.20;100.00;100242.22;5108443;28;20039;-73
2021/12/03 03:21:04;;;;;;;4.93;2.22;;;;;;;-0.10;100.00;100247.66;5109330;28;20042;-73
2021/12/03 03:23:31;;;;;;;5.20;2.30;;;;;;;-0.08;100.00;100238.72;5108936;28;20464;-73
2021/12/03 03:25:57;;;;;;;6.55;1.80;;;;;;;0.02;100.00;100245.97;5107989;28;20432;-73
2021/12/03 03:28:24;;;;;;;4.78;2.08;;;;;;;0.09;100.00;100234.09;5108320;28;20051;-73
2021/12/03 03:30:51;;;;;;;4.68;1.70;;;;;;;0.08;100.00;100225.38;5109244;28;20597;-73
2021/12/03 03:33:17;;;;;;;4.03;2.17;;;;;;;0.03;100.00;100206.50;5091263;28;20028;-73
2021/12/03 03:35:44;;;;;;;4.88;1.90;;;;;;;0.16;100.00;100212.56;5107828;28;20050;-73
2021/12/03 03:38:10;;;;;;;2.60;1.70;;;;;;;0.23;100.00;100209.50;5108096;28;20464;-73
2021/12/03 03:40:36;;;;;;;2.15;1.33;;;;;;;0.24;100.00;100219.06;5108113;28;20027;-73
2021/12/03 03:43:04;;;;;;;2.92;1.45;;;;;;;0.21;100.00;100209.59;5108972;28;20038;-73
2021/12/03 03:45:30;;;;;;;9.85;1.80;;;;;;;0.20;100.00;100207.94;5107848;28;20045;-72
2021/12/03 03:47:56;;;;;;;4.90;2.35;;;;;;;0.22;100.00;100203.41;5108984;28;20088;-72
2021/12/03 03:50:23;;;;;;;8.52;2.38;;;;;;;0.19;100.00;100193.13;5108687;28;20408;-71
2021/12/03 03:52:51;;;;;;;6.47;2.40;;;;;;;0.20;100.00;100218.44;5108015;28;20040;-72
2021/12/03 03:55:18;;;;;;;4.38;2.50;;;;;;;0.35;100.00;100229.63;5107614;28;20031;-72
2021/12/03 03:57:45;;;;;;;4.95;2.50;;;;;;;0.26;100.00;100173.38;5107898;28;20088;-71
2021/12/03 04:00:16;;;;;;;6.95;2.25;;;;;;;0.38;100.00;100185.59;5107943;28;20043;-71
2021/12/03 04:02:42;;;;;;;6.57;2.47;;;;;;;0.34;100.00;100180.69;5108916;28;20040;-71
2021/12/03 04:05:08;;;;;;;7.80;2.60;;;;;;;0.25;100.00;100192.69;5108382;28;20038;-71
2021/12/03 04:07:34;;;;;;;7.28;2.53;;;;;;;0.18;100.00;100184.41;5108040;28;20577;-71
2021/12/03 04:10:00;;;;;;;3.85;2.45;;;;;;;0.23;100.00;100196.38;5107821;28;20032;-71
2021/12/03 04:12:25;;;;;;;7.30;2.50;;;;;;;0.13;100.00;100186.53;5108824;28;20028;-71
2021/12/03 04:14:50;;;;;;;7.53;2.53;;;;;;;0.23;100.00;100212.13;5107481;28;20032;-71
2021/12/03 04:17:16;;;;;;;7.00;2.50;;;;;;;0.26;100.00;100207.50;5107887;28;20036;-71
2021/12/03 04:19:43;;;;;;;7.70;2.83;;;;;;;0.29;100.00;100211.69;5109027;28;20118;-71
2021/12/03 04:22:14;;;;;;;8.07;3.10;;;;;;;0.31;100.00;100209.81;5107723;28;20046;-71
2021/12/03 04:24:40;;;;;;;9.25;2.25;;;;;;;0.32;100.00;100214.91;5108366;28;20070;-71
2021/12/03 04:27:05;;;;;;;5.82;2.28;;;;;;;0.28;100.00;100218.75;5108664;28;20063;-71
2021/12/03 04:29:31;;;;;;;5.20;2.70;;;;;;;0.24;100.00;100211.19;5108619;28;20032;-71
2021/12/03 04:31:56;;;;;;;10.05;3.53;;;;;;;0.17;100.00;100202.91;5108541;28;20042;-71
2021/12/03 04:34:22;;;;;;;10.77;2.70;;;;;;;0.18;100.00;100204.56;5107229;28;20457;-71
2021/12/03 04:36:47;;;;;;;9.98;2.67;;;;;;;0.25;100.00;100216.31;5109374;28;20289;-71
2021/12/03 04:39:13;;;;;;;4.75;2.40;;;;;;;0.26;100.00;100212.75;5111569;28;20039;-71
2021/12/03 04:41:38;;;;;;;23.42;2.58;;;;;;;0.28;100.00;100215.25;5112496;28;20043;-71
2021/12/03 04:44:04;;;;;;;9.00;3.40;;;;;;;0.27;100.00;100214.41;5111529;28;20027;-71
2021/12/03 04:46:29;;;;;;;5.93;2.33;;;;;;;0.33;100.00;100219.25;5111522;28;20039;-71
2021/12/03 04:48:55;;;;;;;8.60;2.35;;;;;;;0.26;100.00;100204.88;5111135;28;20524;-71
2021/12/03 04:51:20;;;;;;;7.05;2.42;;;;;;;0.31;100.00;100215.06;5110988;28;20046;-71
2021/12/03 04:53:46;;;;;;;10.73;3.35;;;;;;;0.30;100.00;100214.19;5093839;28;20035;-71
2021/12/03 04:56:11;;;;;;;10.13;1.88;;;;;;;0.31;100.00;100208.00;5112176;28;20031;-71
2021/12/03 04:58:37;;;;;;;5.03;1.90;;;;;;;0.32;100.00;100212.28;5110864;28;20046;-71
2021/12/03 05:01:03;;;;;;;4.95;2.03;;;;;;;0.37;100.00;100219.84;5111032;28;20062;-71
2021/12/03 05:03:29;;;;;;;3.97;1.52;;;;;;;0.37;100.00;100225.94;5110861;28;20468;-71
2021/12/03 05:05:58;;;;;;;5.75;2.03;;;;;;;0.40;100.00;100225.72;5111883;28;20067;-70
2021/12/03 05:08:25;;;;;;;6.82;2.20;;;;;;;0.40;100.00;100220.47;5111846;28;20067;-71
2021/12/03 05:10:51;;;;;;;8.18;1.85;;;;;;;0.38;100.00;100211.88;5111889;28;20031;-71
2021/12/03 05:13:32;;;;;;;6.10;1.52;;;;;;;0.45;100.00;100214.06;5110773;28;20384;-70
2021/12/03 05:15:58;;;;;;;9.00;2.08;;;;;;;0.44;100.00;100202.69;5110741;28;20185;-70
2021/12/03 05:18:27;;;;;;;10.25;2.60;;;;;;;0.46;100.00;100194.72;5093918;28;20076;-70
2021/12/03 05:20:54;;;;;;;9.40;1.95;;;;;;;0.50;100.00;100214.56;5110839;28;20131;-70
2021/12/03 05:23:21;;;;;;;5.63;1.58;;;;;;;0.51;100.00;100214.44;5111884;28;20418;-70
2021/12/03 05:25:47;;;;;;;4.70;1.60;;;;;;;0.45;100.00;100206.19;5111233;28;20060;-70
2021/12/03 05:28:14;;;;;;;;;;;;;;;0.51;100.00;100210.97;5112160;28;20039;-75
2021/12/03 05:30:39;;;;;;;4.20;1.98;;;;;;;0.44;100.00;100209.75;5110414;28;19915;-75
2021/12/03 05:33:06;;;;;;;9.83;1.97;;;;;;;0.49;100.00;100216.34;5110541;28;20032;-75
2021/12/03 05:35:33;;;;;;;9.77;2.03;;;;;;;0.48;100.00;100211.22;5111004;28;20292;-75
2021/12/03 05:37:58;;;;;;;2.88;1.98;;;;;;;0.50;100.00;100219.81;5111411;28;20043;-75
2021/12/03 05:40:24;;;;;;;8.05;2.78;;;;;;;0.58;100.00;100234.06;5110428;28;20779;-75
2021/12/03 05:42:51;;;;;;;4.15;1.90;;;;;;;0.58;100.00;100222.72;5110223;28;20072;-75
2021/12/03 05:45:36;;;;;;;12.38;3.22;;;;;;;0.63;100.00;100236.34;5110167;28;20035;-74
2021/12/03 05:48:02;;;;;;;7.47;2.40;;;;;;;0.69;100.00;100235.91;5111089;28;20084;-74
2021/12/03 05:50:28;;;;;;;5.65;3.00;;;;;;;0.71;100.00;100235.81;5109875;28;20143;-74
2021/12/03 05:52:55;;;;;;;8.90;2.72;;;;;;;0.63;100.00;100215.34;5111150;28;20842;-74
2021/12/03 05:55:21;;;;;;;;;;;;;;;0.69;100.00;100233.28;5110040;28;20039;-74
2021/12/03 05:57:47;;;;;;;4.88;3.63;;;;;;;0.63;100.00;100215.34;5110998;28;19926;-74
2021/12/03 06:00:28;;;;;;;7.10;2.53;;;;;;;0.64;100.00;100222.28;5110898;28;20031;-74
2021/12/03 06:02:55;;;;;;;10.68;2.88;;;;;;;0.60;100.00;100205.88;5110834;28;20036;-74
2021/12/03 06:05:23;;;;;;;15.15;4.32;;;;;;;0.60;100.00;100195.38;5110542;28;20031;-74
2021/12/03 06:07:50;;;;;;;8.07;3.17;;;;;;;0.53;100.00;100183.66;5109897;28;20514;-75
2021/12/03 06:10:15;;;;;;;8.73;4.53;;;;;;;0.52;100.00;100181.16;5110819;28;20036;-74
2021/12/03 06:12:41;;;;;;;9.80;4.00;;;;;;;0.51;100.00;100184.72;5109906;28;20356;-74
2021/12/03 06:15:07;;;;;;;9.65;4.20;;;;;;;0.52;100.00;100186.41;5109537;28;20038;-74
2021/12/03 06:17:33;;;;;;;9.93;4.75;;;;;;;0.51;100.00;100179.47;5109686;28;20381;-75
2021/12/03 06:19:58;;;;;;;10.40;3.83;;;;;;;0.45;100.00;100174.66;5109678;28;20588;-74
2021/12/03 06:22:24;;;;;;;8.32;4.35;;;;;;;0.54;100.00;100168.72;5111091;28;20038;-74
2021/12/03 06:24:49;;;;;;;7.60;4.00;;;;;;;0.49;100.00;100161.19;5109546;28;20035;-75
2021/12/03 06:27:15;;;;;;;11.85;4.43;;;;;;;0.48;100.00;100153.44;5109542;28;20043;-74
2021/12/03 06:29:40;;;;;;;12.20;4.97;;;;;;;0.54;100.00;100159.06;5109358;28;20039;-75
2021/12/03 06:32:09;;;;;;;16.70;6.50;;;;;;;0.51;100.00;100145.31;5109313;28;20070;-74
2021/12/03 06:34:36;;;;;;;13.30;5.47;;;;;;;0.48;100.00;100146.38;5108835;28;20092;-74
2021/12/03 06:37:02;;;;;;;12.07;5.90;;;;;;;0.44;100.00;100152.78;5109224;28;20116;-74
2021/12/03 06:39:27;;;;;;;14.50;5.28;;;;;;;0.43;100.00;100150.31;5110198;28;20449;-74
2021/12/03 06:41:53;;;;;;;10.02;5.70;;;;;;;0.37;100.00;100135.81;5109201;28;20036;-74
2021/12/03 06:44:18;;;;;;;14.47;5.53;;;;;;;0.39;100.00;100133.91;5109242;28;20062;-74
2021/12/03 06:46:44;;;;;;;11.82;5.60;;;;;;;0.37;100.00;100131.38;5108526;28;20289;-75
2021/12/03 06:49:09;;;;;;;16.55;5.53;;;;;;;0.41;100.00;100132.84;5109898;28;20039;-75
2021/12/03 06:51:41;;;;;;;15.48;5.53;;;;;;;0.45;100.00;100151.03;5108845;28;20058;-74
2021/12/03 06:54:08;;;;;;;11.18;5.10;;;;;;;0.38;100.00;100138.34;5091343;28;20034;-74
2021/12/03 06:56:51;;;;;;;11.20;6.10;;;;;;;0.33;100.00;100139.63;5108649;28;20044;-74
2021/12/03 06:59:19;;;;;;;11.73;5.70;;;;;;;0.32;100.00;100136.16;5108099;28;20050;-74
2021/12/03 07:01:45;;;;;;;12.82;5.10;;;;;;;0.39;100.00;100166.25;5109766;28;20445;-75
2021/12/03 07:04:11;;;;;;;10.02;4.78;;;;;;;0.37;100.00;100152.41;5091564;28;20038;-74
2021/12/03 07:06:37;;;;;;;15.77;4.93;;;;;;;0.40;100.00;100154.81;5109697;28;20051;-74
2021/12/03 07:09:04;;;;;;;12.45;4.50;;;;;;;0.49;100.00;100171.72;5109573;28;20040;-74
2021/12/03 07:11:30;;;;;;;10.55;5.38;;;;;;;0.53;100.00;100172.31;5109571;28;20044;-75
2021/12/03 07:13:56;;;;;;;8.93;4.78;;;;;;;0.56;100.00;100161.56;5109836;28;20042;-74
2021/12/03 07:16:22;;;;;;;12.68;5.20;;;;;;;0.51;100.00;100148.78;5109427;28;20046;-75
2021/12/03 07:18:48;;;;;;;8.93;4.95;;;;;;;0.50;100.00;100148.91;5110234;28;20035;-75
2021/12/03 07:21:13;;;;;;;11.15;3.83;;;;;;;0.49;100.00;100148.06;5110388;28;20068;-74
2021/12/03 07:23:39;;;;;;;12.50;4.80;;;;;;;0.52;100.00;100152.25;5109189;28;20040;-75
2021/12/03 07:26:05;;;;;;;10.07;4.28;;;;;;;0.48;100.00;100138.50;5110369;28;20050;-75
2021/12/03 07:28:31;;;;;;;6.32;4.03;;;;;;;0.51;100.00;100140.06;5109337;28;20050;-75
2021/12/03 07:30:57;;;;;;;;;;;;;;;0.53;100.00;100138.16;5110727;28;20054;-75
2021/12/03 07:33:22;;;;;;;9.15;4.32;;;;;;;0.50;100.00;100133.97;5110368;28;19908;-75
2021/12/03 07:35:48;;;;;;;7.57;3.63;;;;;;;0.54;100.00;100142.44;5109028;28;20034;-75
2021/12/03 07:38:17;;;;;;;16.42;4.78;;;;;;;0.58;100.00;100149.16;5109226;28;20564;-76
2021/12/03 07:40:47;;;;;;;10.23;5.03;;;;;;;0.59;100.00;100167.44;5109281;28;20031;-75
2021/12/03 07:43:12;;;;;;;12.50;4.57;;;;;;;0.56;100.00;100156.31;5110005;28;20043;-75
2021/12/03 07:45:38;;;;;;;9.95;4.43;;;;;;;0.61;100.00;100170.81;5108798;28;20038;-75
2021/12/03 07:48:07;;;;;;;9.75;4.53;;;;;;;0.58;100.00;100160.50;5109343;28;20031;-74
2021/12/03 07:50:36;;;;;;;7.18;4.35;;;;;;;0.54;100.00;100139.81;5107554;28;20027;-75
2021/12/03 07:53:06;;;;;;;11.15;4.88;;;;;;;0.58;100.00;100149.16;5107915;28;20445;-75
2021/12/03 07:55:32;;;;;;;9.23;4.35;;;;;;;0.51;100.00;100133.00;5107596;28;20027;-75
2021/12/03 07:57:58;;;;;;;9.50;4.78;;;;;;;0.53;100.00;100136.38;5108834;28;20099;-75
2021/12/03 08:00:23;;;;;;;7.57;4.07;;;;;;;0.50;100.00;100128.72;5107932;28;20130;-75
2021/12/03 08:02:49;;;;;;;11.50;4.45;;;;;;;0.50;100.00;100120.00;5108823;28;20731;-76
2021/12/03 08:05:15;;;;;;;8.63;4.25;;;;;;;0.46;100.00;100121.19;5108408;28;20045;-75
2021/12/03 08:07:45;;;;;;;12.63;4.78;;;;;;;0.47;100.00;100136.84;5107935;28;20036;-75
2021/12/03 08:10:11;;;;;;;7.28;4.65;;;;;;;0.51;100.00;100145.31;5108781;28;20069;-75
2021/12/03 08:12:39;;;;;;;8.80;4.88;;;;;;;0.55;100.00;100160.72;5112084;28;20039;-76
2021/12/03 08:15:05;;;;;;;9.10;4.78;;;;;;;0.54;100.00;100156.44;5112673;28;20050;-77
2021/12/03 08:17:30;;;;;;;10.48;5.38;;;;;;;0.57;100.00;100166.72;5111948;28;20123;-77
2021/12/03 08:19:56;;;;;;;10.25;6.22;;;;;;;0.48;100.00;100151.63;5112144;28;20043;-77
2021/12/03 08:22:22;;;;;;;10.73;5.78;;;;;;;0.45;100.00;100137.91;5112479;28;20058;-77
2021/12/03 08:24:47;;;;;;;9.13;4.97;;;;;;;0.40;100.00;100136.44;5112516;28;20027;-77
2021/12/03 08:27:13;;;;;;;9.77;5.85;;;;;;;0.33;100.00;100127.34;5111879;28;20035;-76
2021/12/03 08:29:38;;;;;;;12.60;6.30;;;;;;;0.29;100.00;100132.91;5094858;28;20421;-77
2021/12/03 08:32:05;;;;;;;14.40;5.78;;;;;;;0.32;100.00;100128.25;5112606;28;20043;-77
2021/12/03 08:34:30;;;;;;;12.88;5.38;;;;;;;0.46;100.00;100139.56;5111447;28;20135;-77
2021/12/03 08:36:56;;;;;;;9.57;6.60;;;;;;;0.46;100.00;100123.81;5112168;28;20040;-77
2021/12/03 08:39:21;;;;;;;11.77;6.00;;;;;;;0.52;100.00;100129.44;5112542;28;20108;-77
2021/12/03 08:41:47;;;;;;;10.73;6.10;;;;;;;0.60;100.00;100131.50;5112458;28;20485;-76
2021/12/03 08:44:13;;;;;;;19.67;7.18;;;;;;;0.58;100.00;100120.25;5094238;28;20083;-77
2021/12/03 08:46:39;;;;;;;12.27;7.03;;;;;;;0.52;100.00;100104.97;5111562;28;20071;-76
2021/12/03 08:49:14;;;;;;;11.00;6.15;;;;;;;0.61;100.00;100112.19;5094501;28;20384;-77
2021/12/03 08:56:54;;;;;;;11.45;6.10;;;;;;;0.84;100.00;100106.03;5112151;28;20043;-78
2021/12/03 08:59:20;;;;;;;8.77;6.00;;;;;;;0.68;100.00;100081.88;5111032;28;20364;-77
2021/12/03 09:01:46;;;;;;;;;;;;;;;0.96;100.00;100106.91;5092757;28;20036;-77
2021/12/03 09:04:14;;;;;;;10.57;5.65;;;;;;;0.98;100.00;100080.47;5110090;28;19911;-78
2021/12/03 09:06:39;;;;;;;18.73;6.55;;;;;;;0.97;100.00;100078.81;5109540;28;20111;-77
2021/12/03 09:09:07;;;;;;;9.63;6.28;;;;;;;0.98;100.00;100083.09;5110253;28;20504;-77
2021/12/03 09:11:37;;;;;;;13.05;6.30;;;;;;;1.23;100.00;100093.41;5110251;28;20468;-77
2021/12/03 09:14:12;;;;;;;12.50;6.50;;;;;;;1.50;100.00;100100.13;5108813;28;20027;-77
2021/12/03 09:16:37;;;;;;;9.60;6.07;;;;;;;2.21;100.00;100141.91;5110690;28;20070;-77
2021/12/03 09:19:06;;;;;;;13.20;6.05;;;;;;;1.82;100.00;100054.63;5110821;28;20489;-77
2021/12/03 09:21:34;;;;;;;10.88;5.93;;;;;;;1.53;99.68;100046.44;5110192;28;20043;-77
2021/12/03 09:26:28;;;;;;;12.77;4.73;;;;;;;2.61;96.88;100065.69;5111499;28;20050;-77
2021/12/03 09:29:07;;;;;;;14.65;6.03;;;;;;;2.31;95.22;100013.75;5093727;28;20841;-77
2021/12/03 09:31:36;;;;;;;12.93;6.63;;;;;;;2.24;95.14;100012.59;5111485;28;20042;-77
2021/12/03 09:34:01;;;;;;;8.27;5.40;;;;;;;2.50;94.62;100027.06;5110355;28;20081;-77
2021/12/03 09:36:27;;;;;;;11.82;5.85;;;;;;;2.59;93.10;100003.53;5111466;28;20127;-77
2021/12/03 09:38:52;;;;;;;9.57;6.40;;;;;;;2.40;93.30;99994.53;5111455;28;20035;-77
2021/12/03 09:41:20;;;;;;;9.03;5.73;;;;;;;2.74;92.92;100029.44;5111400;28;20100;-77
2021/12/03 09:43:48;;;;;;;10.95;5.60;;;;;;;2.95;92.06;100034.72;5111107;28;20456;-77
2021/12/03 09:46:20;;;;;;;22.90;8.05;;;;;;;3.26;90.46;100008.31;5111661;28;20047;-77
2021/12/03 09:51:15;;;;;;;11.60;6.00;;;;;;;2.51;90.42;99962.88;5110757;28;20467;-77
2021/12/03 09:56:19;;;;;;;14.15;6.45;;;;;;;2.49;91.79;100004.31;5111212;28;20802;-77
2021/12/03 10:12:49;;;;;;;14.18;7.10;;;;;;;1.51;92.92;99896.59;5109991;28;20480;-77
2021/12/03 10:18:07;;;;;;;14.40;7.20;;;;;;;1.66;94.73;99950.59;5110545;28;20043;-76
2021/12/03 10:20:47;;;;;;;15.45;7.38;;;;;;;1.85;95.05;99967.50;5109708;28;20043;-77
2021/12/03 10:29:05;;;;;;;11.40;7.13;;;;;;;2.25;94.23;99964.22;5110513;28;20027;-77
2021/12/03 10:37:51;;;;;;;13.73;7.72;;;;;;;2.37;93.84;99942.13;5110374;28;20477;-77
2021/12/03 10:40:24;;;;;;;19.80;9.63;;;;;;;2.30;93.87;99931.25;5108949;28;20063;-77
2021/12/03 10:48:40;;;;;;;14.20;9.15;;;;;;;2.39;93.42;99913.84;5109017;28;20452;-76
2021/12/03 10:51:29;;;;;;;16.50;9.13;;;;;;;2.26;93.75;99900.88;5108623;28;20027;-76
2021/12/03 10:54:09;;;;;;;20.15;10.20;;;;;;;2.19;93.91;99888.38;5108513;28;20514;-76
2021/12/03 10:56:49;;;;;;;20.58;11.18;;;;;;;2.07;94.66;99900.75;5108915;28;20469;-75
2021/12/03 11:20:48;;;;;;;26.13;14.60;;;;;;;1.57;97.35;99887.34;5109453;28;20058;-75
2021/12/03 11:28:50;;;;;;;30.27;16.65;;;;;;;1.34;98.54;99900.59;5109308;28;20032;-76
2021/12/03 11:36:42;;;;;;;32.85;17.60;;;;;;;1.34;99.41;99899.75;5108184;28;20040;-75
2021/12/03 11:52:02;;;;;;;37.33;17.23;;;;;;;1.19;100.00;99860.56;5073151;28;20066;-75
2021/12/03 11:55:33;;;;;;;37.78;19.85;;;;;;;0.88;100.00;99835.91;5107289;28;20059;-75
2021/12/03 12:35:34;;;;;;;42.25;19.48;;;;;;;1.04;100.00;99867.91;5107375;28;20403;-76
2021/12/03 12:57:52;;;;;;;44.45;21.00;;;;;;;1.17;100.00;99875.66;5107656;28;20031;-76
2021/12/03 13:06:53;;;;;;;49.03;19.48;;;;;;;1.12;100.00;99864.66;5110837;28;20118;-76
2021/12/03 13:32:29;;;;;;;48.90;20.33;;;;;;;1.18;100.00;99827.38;5111568;27;20036;-76
2021/12/03 14:33:37;;;;;;;50.30;20.60;;;;;;;1.10;100.00;99786.88;5110301;28;20035;-77
2021/12/03 14:40:17;;;;;;;51.38;20.40;;;;;;;1.09;100.00;99772.06;5110316;28;20044;-77
2021/12/03 14:43:05;;;;;;;51.28;20.45;;;;;;;1.03;100.00;99753.22;5109662;28;20084;-77
2021/12/03 14:50:50;;;;;;;53.28;19.50;;;;;;;0.99;100.00;99732.56;5110129;28;20107;-77
2021/12/03 14:55:54;;;;;;;49.70;19.35;;;;;;;1.02;100.00;99730.50;5109162;28;20244;-77
2021/12/03 14:58:22;;;;;;;51.22;18.63;;;;;;;0.97;100.00;99723.97;5109975;28;20039;-77
2021/12/03 15:00:56;;;;;;;51.55;20.67;;;;;;;0.86;100.00;99705.63;5091955;28;20028;-77
2021/12/03 15:06:10;;;;;;;54.58;21.80;;;;;;;0.69;100.00;99705.19;5109775;28;20036;-77
2021/12/03 15:08:54;;;;;;;65.75;23.45;;;;;;;0.60;100.00;99691.00;5109663;28;20047;-77
2021/12/03 15:11:53;;;;;;;57.10;22.63;;;;;;;0.57;100.00;99711.44;5109723;28;20088;-78
2021/12/03 15:30:27;;;;;;;72.30;22.45;;;;;;;0.03;100.00;99707.00;5108376;28;20031;-77
2021/12/03 15:33:00;;;;;;;64.70;25.40;;;;;;;0.05;100.00;99712.94;5108579;28;20050;-77
2021/12/03 16:08:15;;;;;;;58.97;23.23;;;;;;;-0.40;100.00;99745.25;5107508;28;20156;-77
2021/12/03 16:11:03;;;;;;;61.47;25.30;;;;;;;-0.40;100.00;99754.91;5107994;28;20038;-77
2021/12/03 16:51:06;;;;;;;51.92;21.15;;;;;;;-0.06;100.00;99832.72;5111346;28;20032;-80
2021/12/03 16:53:32;;;;;;;44.80;20.40;;;;;;;-0.02;100.00;99835.97;5111425;28;20371;-80
2021/12/03 16:56:31;;;;;;;42.15;21.13;;;;;;;-0.01;100.00;99842.88;5111464;28;20046;-79
2021/12/03 16:58:50;;;;;;;43.90;22.38;;;;;;;0.04;100.00;99863.50;5110393;28;20047;-80
2021/12/03 17:14:45;;;;;;;43.45;20.20;;;;;;;0.18;100.00;99865.91;5110926;28;20035;-80
2021/12/03 17:25:14;;;;;;;31.42;15.43;;;;;;;0.27;100.00;99894.09;5111268;28;20040;-80